Time;durP1;ratioP1;P1;durP2;ratioP2;P2;SDS_P1;SDS_P2;PMS_P1;PMS_P2;Temp;Humidity;BMP_temperature;BMP_pressure;BME280_temperature;BME280_humidity;BME280_pressure;Samples;Min_cycle;Max_cycle;Signal;HPM_P1;HPM_P2
2023/09/11 00:00:41;;;;;;;15.13;5.00;;;;;;;14.68;47.66;100959.86;125965;1098;102005;-78
2023/09/11 00:03:32;;;;;;;13.93;4.73;;;;;;;14.63;48.35;100953.58;125830;1099;109029;-78
2023/09/11 00:06:07;;;;;;;15.37;5.27;;;;;;;14.52;48.62;100960.26;125977;1099;102029;-80
2023/09/11 00:08:53;;;;;;;18.03;5.43;;;;;;;14.37;48.77;100958.11;126160;1099;101880;-79
2023/09/11 00:11:24;;;;;;;13.77;5.37;;;;;;;14.26;48.80;100957.81;126051;1099;102023;-79
2023/09/11 00:13:55;;;;;;;16.77;6.17;;;;;;;14.15;49.16;100960.15;125818;1099;101956;-80
2023/09/11 00:16:27;;;;;;;17.70;5.60;;;;;;;14.03;49.73;100963.31;125777;1099;104341;-79
2023/09/11 00:18:58;;;;;;;15.73;5.70;;;;;;;13.94;49.68;100962.16;125963;1099;103651;-79
2023/09/11 00:21:29;;;;;;;17.33;5.20;;;;;;;13.86;50.48;100963.69;125864;1099;102079;-78
2023/09/11 00:24:01;;;;;;;15.27;5.77;;;;;;;13.83;49.41;100961.84;125873;1099;104243;-78
2023/09/11 00:26:32;;;;;;;13.73;5.10;;;;;;;13.80;50.50;100961.75;125728;1099;104163;-79
2023/09/11 00:29:04;;;;;;;18.00;5.87;;;;;;;13.87;50.27;100961.09;125298;1099;104342;-79
2023/09/11 00:31:35;;;;;;;16.17;5.20;;;;;;;13.95;50.57;100959.57;125487;1099;102111;-78
2023/09/11 00:34:07;;;;;;;14.37;5.10;;;;;;;14.01;50.75;100957.11;125831;1097;105501;-79
2023/09/11 00:36:38;;;;;;;14.53;5.30;;;;;;;14.05;50.79;100949.28;125723;1098;101811;-79
2023/09/11 00:39:10;;;;;;;17.43;5.20;;;;;;;14.06;50.16;100941.41;125759;1099;101954;-79
2023/09/11 00:41:42;;;;;;;13.20;5.33;;;;;;;14.04;50.42;100935.21;125699;1099;102055;-78
2023/09/11 00:44:14;;;;;;;14.10;5.10;;;;;;;13.94;50.87;100941.94;125199;1099;101994;-79
2023/09/11 00:46:46;;;;;;;16.57;5.00;;;;;;;13.88;50.97;100938.24;125681;1099;104271;-78
2023/09/11 00:49:17;;;;;;;13.17;4.90;;;;;;;13.83;50.62;100932.83;125766;1099;102754;-78
2023/09/11 00:51:50;;;;;;;11.80;4.57;;;;;;;13.87;51.46;100939.08;125699;1099;102054;-78
2023/09/11 00:54:36;;;;;;;14.83;5.00;;;;;;;13.91;51.11;100943.61;125707;1099;102079;-80
2023/09/11 00:57:08;;;;;;;13.43;4.87;;;;;;;13.87;51.32;100945.27;125527;1099;104245;-79
2023/09/11 00:59:40;;;;;;;10.27;4.60;;;;;;;13.87;51.47;100945.27;125599;1099;101859;-78
2023/09/11 01:02:11;;;;;;;13.70;4.60;;;;;;;13.81;51.80;100945.09;125546;1099;104301;-78
2023/09/11 01:04:45;;;;;;;10.40;4.93;;;;;;;13.69;52.15;100942.09;125163;1099;103406;-79
2023/09/11 01:07:18;;;;;;;11.83;4.87;;;;;;;13.59;51.84;100940.92;125586;1099;104259;-79
2023/09/11 01:09:49;;;;;;;13.70;4.73;;;;;;;13.48;52.01;100940.59;125796;1099;104226;-79
2023/09/11 01:12:21;;;;;;;14.43;5.10;;;;;;;13.38;52.91;100951.69;125813;1099;104179;-79
2023/09/11 01:14:52;;;;;;;17.60;5.20;;;;;;;13.30;52.71;100941.75;125306;1099;104150;-79
2023/09/11 01:17:34;;;;;;;16.83;5.30;;;;;;;13.31;52.92;100943.55;125731;1099;101914;-79
2023/09/11 01:20:22;;;;;;;12.07;4.60;;;;;;;13.31;53.12;100943.55;125647;1099;104191;-80
2023/09/11 01:23:17;;;;;;;14.63;5.07;;;;;;;13.26;53.25;100941.60;125568;1099;101832;-80
2023/09/11 01:26:17;;;;;;;15.30;4.83;;;;;;;13.18;53.57;100943.11;125419;1099;112850;-79
2023/09/11 01:29:08;;;;;;;14.37;4.80;;;;;;;13.11;53.41;100936.75;125057;1099;101790;-79
2023/09/11 01:31:43;;;;;;;11.50;5.00;;;;;;;13.04;54.26;100942.66;125708;1098;104086;-80
2023/09/11 01:34:15;;;;;;;11.33;4.50;;;;;;;12.94;54.16;100937.08;125257;1099;104405;-79
2023/09/11 01:36:49;;;;;;;15.27;4.80;;;;;;;12.87;54.38;100927.20;125631;1099;104173;-79
2023/09/11 01:39:21;;;;;;;13.30;4.93;;;;;;;12.80;54.68;100927.84;125592;1099;101941;-80
2023/09/11 01:41:58;;;;;;;14.73;4.90;;;;;;;12.77;54.62;100922.47;125632;1099;102435;-80
2023/09/11 01:44:36;;;;;;;12.37;4.83;;;;;;;12.76;54.68;100920.66;125550;1099;101920;-79
2023/09/11 01:47:08;;;;;;;15.93;4.87;;;;;;;12.77;54.54;100922.47;125660;1098;104175;-79
2023/09/11 01:49:41;;;;;;;14.83;5.23;;;;;;;12.79;54.65;100925.16;125582;1099;104185;-78
2023/09/11 01:52:13;;;;;;;12.80;4.87;;;;;;;12.80;54.82;100919.94;125629;1099;104079;-79
2023/09/11 01:54:46;;;;;;;13.20;4.57;;;;;;;12.84;54.64;100921.84;125656;1096;102154;-78
2023/09/11 01:57:18;;;;;;;11.93;4.80;;;;;;;12.88;54.97;100923.71;125542;1099;104252;-79
2023/09/11 01:59:52;;;;;;;14.50;4.47;;;;;;;12.92;54.90;100924.73;125444;1099;102026;-79
2023/09/11 02:02:23;;;;;;;10.53;4.43;;;;;;;12.94;54.85;100923.91;125661;1099;102285;-79
2023/09/11 02:04:55;;;;;;;14.30;4.50;;;;;;;12.95;54.99;100930.98;125675;1099;102070;-79
2023/09/11 02:07:26;;;;;;;11.77;4.87;;;;;;;12.99;55.22;100924.06;125660;1099;104217;-79
2023/09/11 02:10:02;;;;;;;13.97;4.57;;;;;;;13.03;55.40;100928.59;125678;1098;104321;-78
2023/09/11 02:12:33;;;;;;;12.87;4.60;;;;;;;13.08;55.39;100918.21;125603;1099;101866;-78
2023/09/11 02:15:07;;;;;;;14.50;4.80;;;;;;;13.11;55.07;100924.47;125485;1099;102071;-80
2023/09/11 02:17:38;;;;;;;11.93;4.33;;;;;;;13.12;55.39;100918.36;125498;1099;104163;-80
2023/09/11 02:20:11;;;;;;;14.57;4.90;;;;;;;13.13;55.35;100929.78;125787;1099;102097;-80
2023/09/11 02:22:42;;;;;;;13.67;5.43;;;;;;;13.12;55.40;100922.75;125781;1099;101988;-80
2023/09/11 02:25:14;;;;;;;15.50;4.93;;;;;;;13.10;55.68;100921.78;125667;1098;104284;-79
2023/09/11 02:27:45;;;;;;;13.20;4.53;;;;;;;13.08;55.71;100921.73;125684;1098;104204;-79
2023/09/11 02:30:16;;;;;;;14.27;5.17;;;;;;;13.05;55.54;100918.11;125612;1099;104663;-79
2023/09/11 02:32:48;;;;;;;12.53;4.97;;;;;;;13.08;55.92;100918.21;125651;1099;104181;-79
2023/09/11 02:35:19;;;;;;;12.23;5.47;;;;;;;13.10;55.61;100916.51;125610;1099;104191;-79
2023/09/11 02:37:51;;;;;;;12.77;4.83;;;;;;;13.12;56.05;100914.84;125696;1099;104181;-80
2023/09/11 02:40:27;;;;;;;11.37;5.17;;;;;;;13.11;56.02;100913.92;125536;1099;102061;-78
2023/09/11 02:42:58;;;;;;;14.70;5.80;;;;;;;13.10;55.63;100909.52;125324;1099;102288;-78
2023/09/11 02:45:38;;;;;;;16.50;5.13;;;;;;;13.06;55.83;100912.01;125572;1099;104293;-78
2023/09/11 02:48:09;;;;;;;16.93;5.70;;;;;;;12.95;55.67;100909.03;125817;1099;102236;-78
2023/09/11 02:50:41;;;;;;;12.87;4.87;;;;;;;12.84;56.12;100911.31;125634;1099;104322;-78
2023/09/11 02:53:16;;;;;;;16.37;5.67;;;;;;;12.77;56.21;100911.94;125786;1098;104281;-78
2023/09/11 02:55:53;;;;;;;17.03;5.53;;;;;;;12.76;56.42;100905.78;125904;1098;102233;-78
2023/09/11 02:58:24;;;;;;;16.07;5.63;;;;;;;12.72;56.69;100917.05;125672;1099;101827;-78
2023/09/11 03:00:56;;;;;;;16.47;5.53;;;;;;;12.70;56.70;100909.92;125721;1099;104232;-78
2023/09/11 03:03:27;;;;;;;13.77;5.20;;;;;;;12.72;56.54;100910.90;125643;1099;102169;-78
2023/09/11 03:06:00;;;;;;;12.57;4.60;;;;;;;12.64;56.72;100908.00;125720;1099;103106;-79
2023/09/11 03:08:32;;;;;;;13.63;5.13;;;;;;;12.59;56.75;100910.48;125280;1099;102809;-78
2023/09/11 03:11:08;;;;;;;14.43;5.07;;;;;;;12.53;57.15;100912.91;125649;1098;102075;-77
2023/09/11 03:13:41;;;;;;;15.90;5.30;;;;;;;12.50;57.06;100912.80;125553;1099;104242;-79
2023/09/11 03:16:14;;;;;;;14.65;5.95;;;;;;;12.49;56.98;100910.99;125235;1099;104341;-77
2023/09/11 03:18:48;;;;;;;16.17;5.20;;;;;;;12.45;56.82;100914.38;125614;1099;102318;-78
2023/09/11 03:21:19;;;;;;;17.73;5.50;;;;;;;12.39;57.05;100915.05;125624;1098;101833;-78
2023/09/11 03:23:50;;;;;;;15.97;5.60;;;;;;;12.37;57.45;100916.75;125647;1099;104258;-78
2023/09/11 03:26:22;;;;;;;14.10;5.37;;;;;;;12.43;57.40;100908.16;125662;1099;104172;-78
2023/09/11 03:28:55;;;;;;;15.03;5.77;;;;;;;12.47;57.48;100915.33;125325;1099;104436;-78
2023/09/11 03:31:42;;;;;;;13.87;5.60;;;;;;;12.44;57.80;100923.11;125443;1099;102314;-79
2023/09/11 03:34:13;;;;;;;17.77;5.93;;;;;;;12.38;57.99;100925.53;125447;1099;104281;-78
2023/09/11 03:36:45;;;;;;;14.93;5.67;;;;;;;12.25;58.18;100918.95;125463;1099;104099;-78
2023/09/11 03:39:16;;;;;;;17.60;5.47;;;;;;;12.25;58.00;100920.66;125601;1099;102352;-78
2023/09/11 03:41:47;;;;;;;14.93;5.50;;;;;;;12.18;58.59;100914.30;125733;1098;101973;-79
2023/09/11 03:44:19;;;;;;;18.70;6.00;;;;;;;12.11;58.56;100917.56;125810;1099;102038;-78
2023/09/11 03:46:50;;;;;;;12.70;5.00;;;;;;;12.07;58.48;100916.53;125771;1099;104252;-79
2023/09/11 03:49:22;;;;;;;15.03;5.40;;;;;;;12.05;58.64;100915.59;125239;1099;102731;-79
2023/09/11 03:51:53;;;;;;;16.80;5.20;;;;;;;12.00;58.58;100912.80;125936;1099;104330;-79
2023/09/11 03:54:24;;;;;;;17.17;5.50;;;;;;;12.02;58.80;100912.85;125367;1099;103359;-79
2023/09/11 03:56:56;;;;;;;16.65;5.10;;;;;;;12.12;59.02;100919.34;124924;1099;104312;-77
2023/09/11 03:59:27;;;;;;;15.57;6.00;;;;;;;12.21;58.70;100911.77;125437;1099;104195;-78
2023/09/11 04:01:59;;;;;;;14.90;5.70;;;;;;;12.25;58.91;100910.14;125416;1099;101904;-78
2023/09/11 04:04:30;;;;;;;18.57;6.40;;;;;;;12.27;58.96;100916.37;125342;1099;102203;-79
2023/09/11 04:07:04;;;;;;;20.53;6.27;;;;;;;12.27;59.17;100911.98;125665;1099;104179;-78
2023/09/11 04:09:35;;;;;;;19.07;5.53;;;;;;;12.24;59.58;100917.14;125704;1099;104204;-79
2023/09/11 04:12:08;;;;;;;18.50;5.87;;;;;;;12.19;59.45;100916.98;125717;1098;101936;-79
2023/09/11 04:14:39;;;;;;;16.48;5.83;;;;;;;12.15;59.51;100915.06;125300;1099;101880;-79
2023/09/11 04:17:11;;;;;;;20.23;6.83;;;;;;;12.12;59.92;100914.95;125462;1099;102501;-79
2023/09/11 04:19:45;;;;;;;19.98;6.00;;;;;;;12.11;59.88;100914.94;125632;1098;102068;-80
2023/09/11 04:22:16;;;;;;;18.77;6.27;;;;;;;12.13;59.78;100911.50;125559;1099;102686;-79
2023/09/11 04:24:48;;;;;;;20.60;6.20;;;;;;;12.19;59.81;100911.72;125540;1099;103080;-78
2023/09/11 04:27:23;;;;;;;16.60;6.27;;;;;;;12.21;60.16;100912.66;125745;1099;101817;-78
2023/09/11 04:29:56;;;;;;;20.37;6.70;;;;;;;12.30;60.08;100904.20;125620;1099;104246;-80
2023/09/11 04:32:27;;;;;;;23.30;6.30;;;;;;;12.32;60.06;100905.14;125465;1099;102062;-81
2023/09/11 04:34:59;;;;;;;19.93;6.77;;;;;;;12.29;60.54;100906.78;125671;1099;104189;-81
2023/09/11 04:37:30;;;;;;;14.67;6.03;;;;;;;12.25;60.28;100910.14;125690;1099;101836;-79
2023/09/11 04:40:05;;;;;;;16.80;6.20;;;;;;;12.25;60.49;100902.24;125667;1097;102329;-80
2023/09/11 04:42:37;;;;;;;17.27;6.07;;;;;;;12.25;60.27;100905.79;125532;1099;104191;-79
2023/09/11 04:45:11;;;;;;;23.83;7.07;;;;;;;12.23;60.70;100903.11;125530;1099;102018;-81
2023/09/11 04:47:43;;;;;;;19.00;6.33;;;;;;;12.25;60.79;100910.14;126324;1099;102216;-78
2023/09/11 04:50:14;;;;;;;23.20;6.97;;;;;;;12.28;60.75;100902.35;125611;1099;102180;-79
2023/09/11 04:52:47;;;;;;;22.80;6.87;;;;;;;12.32;60.91;100897.25;116756;1099;10001042;-77
2023/09/11 04:55:19;;;;;;;20.07;7.77;;;;;;;12.37;61.28;100900.96;125453;1099;104176;-79
2023/09/11 04:57:50;;;;;;;16.57;7.03;;;;;;;12.41;61.15;100908.09;125848;1099;104220;-77
2023/09/11 05:00:29;;;;;;;18.57;7.33;;;;;;;12.49;61.16;100900.47;126252;1099;104194;-77
2023/09/11 05:03:03;;;;;;;21.53;6.30;;;;;;;12.57;61.19;100903.36;126458;1097;101804;-81
2023/09/11 05:05:40;;;;;;;17.53;6.40;;;;;;;12.62;61.06;100901.80;126322;1098;102012;-82
2023/09/11 05:08:32;;;;;;;21.40;6.67;;;;;;;12.70;61.30;100908.21;125537;1099;104235;-80
2023/09/11 05:11:04;;;;;;;20.93;7.80;;;;;;;12.77;61.36;100910.19;125498;1098;101989;-82
2023/09/11 05:13:36;;;;;;;21.30;7.77;;;;;;;12.83;61.05;100906.88;125947;1098;102903;-76
2023/09/11 05:16:14;;;;;;;21.05;7.25;;;;;;;12.92;61.07;100903.66;125535;1099;102073;-78
2023/09/11 05:18:47;;;;;;;21.90;8.33;;;;;;;13.02;61.37;100896.94;125447;1099;102256;-78
2023/09/11 05:21:19;;;;;;;19.43;7.40;;;;;;;13.12;61.21;100892.02;125208;1099;104312;-76
2023/09/11 05:23:57;;;;;;;20.00;7.60;;;;;;;13.24;61.54;100899.39;125155;1099;104200;-75
2023/09/11 05:26:30;;;;;;;22.70;8.00;;;;;;;13.34;61.03;100897.98;125021;1099;104176;-74
2023/09/11 05:29:04;;;;;;;23.50;8.03;;;;;;;13.43;61.19;100895.63;125209;1099;104335;-76
2023/09/11 05:31:40;;;;;;;24.53;8.40;;;;;;;13.53;61.09;100894.16;125778;1099;103322;-78
2023/09/11 05:34:12;;;;;;;24.50;7.57;;;;;;;13.61;61.37;100884.72;125366;1099;104207;-81
2023/09/11 05:36:44;;;;;;;24.17;7.57;;;;;;;13.72;60.86;100884.16;125482;1099;104182;-78
2023/09/11 05:39:17;;;;;;;20.92;7.42;;;;;;;13.83;60.88;100880.95;125428;1099;101978;-82
2023/09/11 05:41:49;;;;;;;21.23;8.00;;;;;;;13.91;61.04;100881.17;126121;1099;102086;-81
2023/09/11 05:44:21;;;;;;;23.83;8.03;;;;;;;14.00;61.08;100877.91;125250;1099;102035;-77
2023/09/11 05:46:52;;;;;;;23.63;8.13;;;;;;;14.09;61.47;100882.56;124923;1098;104654;-76
2023/09/11 05:49:28;;;;;;;25.87;8.23;;;;;;;14.16;61.55;100874.86;125053;1098;101997;-76
2023/09/11 05:52:01;;;;;;;22.73;8.20;;;;;;;14.26;61.22;100881.27;124986;1098;104166;-77
2023/09/11 05:54:43;;;;;;;26.00;7.70;;;;;;;14.37;61.03;100878.91;124889;1099;104159;-78
2023/09/11 05:57:19;;;;;;;30.05;9.53;;;;;;;14.48;61.35;100888.00;124739;1098;104204;-78
2023/09/11 05:59:53;;;;;;;24.20;8.97;;;;;;;14.57;60.83;100882.08;124867;1099;101973;-78
2023/09/11 06:02:27;;;;;;;21.43;8.40;;;;;;;14.64;61.05;100883.15;126469;1098;104264;-80
2023/09/11 06:05:05;;;;;;;23.67;9.07;;;;;;;14.74;60.41;100886.06;125105;1099;104213;-79
2023/09/11 06:07:43;;;;;;;24.60;8.27;;;;;;;14.85;60.17;100882.77;126032;1099;101806;-77
2023/09/11 06:10:22;;;;;;;25.37;9.53;;;;;;;14.94;60.31;100893.56;126277;1098;101817;-80
2023/09/11 06:13:37;;;;;;;24.57;8.60;;;;;;;15.05;60.98;100893.81;126323;1098;101908;-78
2023/09/11 06:16:38;;;;;;;;;;;;;;;15.17;60.88;100898.52;127534;1098;102134;-79
2023/09/11 06:19:14;;;;;;;21.40;9.27;;;;;;;15.30;60.55;100891.75;125569;1099;104338;-82
2023/09/11 06:21:47;;;;;;;20.90;9.33;;;;;;;15.42;60.22;100895.55;126920;1098;101813;-82
2023/09/11 06:24:19;;;;;;;23.70;9.53;;;;;;;15.54;60.50;100900.23;126947;1098;103295;-79
2023/09/11 06:27:07;;;;;;;23.43;9.27;;;;;;;15.67;60.00;100897.85;126084;1098;104253;-82
2023/09/11 06:29:38;;;;;;;26.40;10.10;;;;;;;15.78;59.26;100893.70;126003;1099;104252;-81
2023/09/11 06:32:29;;;;;;;21.77;10.67;;;;;;;15.89;60.15;100893.92;125748;1099;102040;-83
2023/09/11 06:35:08;;;;;;;24.65;11.60;;;;;;;16.00;59.64;100895.02;126394;1098;101951;-80
2023/09/11 06:37:42;;;;;;;28.70;11.10;;;;;;;16.13;58.77;100898.83;125365;1099;104252;-77
2023/09/11 06:40:15;;;;;;;24.93;10.83;;;;;;;16.23;59.27;100895.47;126351;1098;102385;-82
2023/09/11 06:42:50;;;;;;;;;;;;;;;16.33;57.65;100896.52;125985;1098;102084;-82
2023/09/11 06:45:33;;;;;;;19.30;10.50;;;;;;;16.45;58.06;100896.75;125446;1099;102058;-80
2023/09/11 06:48:06;;;;;;;24.73;9.93;;;;;;;16.57;58.64;100897.86;125635;1099;102035;-83
2023/09/11 06:50:42;;;;;;;20.20;9.53;;;;;;;16.68;58.21;100904.22;126043;1099;102676;-81
2023/09/11 06:53:17;;;;;;;21.37;9.27;;;;;;;16.81;58.23;100907.96;126247;1099;102089;-84
2023/09/11 06:55:51;;;;;;;23.23;9.00;;;;;;;16.94;58.26;100911.73;125528;1099;102027;-82
2023/09/11 06:58:22;;;;;;;;;;;;;;;17.04;56.43;100909.25;126050;1099;101877;-82
2023/09/11 07:01:06;;;;;;;18.20;7.93;;;;;;;17.19;56.56;100908.61;126524;1099;104238;-80
2023/09/11 07:03:42;;;;;;;17.63;7.67;;;;;;;17.32;56.50;100903.49;125416;1099;104196;-80
2023/09/11 07:06:14;;;;;;;16.77;7.73;;;;;;;17.49;56.02;100912.58;127593;1098;101853;-81
2023/09/11 07:09:28;;;;;;;17.93;6.93;;;;;;;17.64;56.30;100913.64;127296;1098;104165;-82
2023/09/11 07:12:03;;;;;;;17.65;7.55;;;;;;;17.89;55.76;100907.83;127077;1098;101687;-83
2023/09/11 07:14:36;;;;;;;20.27;8.07;;;;;;;18.11;55.74;100910.73;127243;1099;101241;-85
2023/09/11 07:17:10;;;;;;;19.23;7.70;;;;;;;18.35;55.51;100906.56;126592;1099;102060;-81
2023/09/11 07:19:51;;;;;;;24.90;8.50;;;;;;;18.47;54.91;100906.69;126871;1098;101776;-82
2023/09/11 07:23:02;;;;;;;18.77;7.73;;;;;;;18.59;54.85;100901.48;126684;1099;101847;-81
2023/09/11 07:25:34;;;;;;;19.62;8.08;;;;;;;18.78;54.95;100898.99;126251;1098;104185;-80
2023/09/11 07:28:24;;;;;;;16.00;7.00;;;;;;;18.92;54.46;100900.02;125570;1099;102206;-80
2023/09/11 07:31:30;;;;;;;20.60;8.20;;;;;;;19.09;54.08;100896.58;126396;1098;104220;-80
2023/09/11 07:34:10;;;;;;;21.33;8.33;;;;;;;19.39;53.59;100890.58;125985;1099;101988;-82
2023/09/11 07:36:53;;;;;;;16.17;7.47;;;;;;;19.75;51.65;100896.96;126572;1099;104220;-80
2023/09/11 07:39:32;;;;;;;18.30;7.80;;;;;;;19.96;51.66;100889.97;125987;1099;101833;-77
2023/09/11 07:42:04;;;;;;;15.37;7.03;;;;;;;20.10;52.22;100883.81;125283;1098;102421;-78
2023/09/11 07:44:43;;;;;;;18.90;7.87;;;;;;;20.35;50.59;100873.20;125515;1099;117832;-77
2023/09/11 07:47:15;;;;;;;20.20;6.37;;;;;;;20.46;50.96;100884.76;126431;1097;102331;-78
2023/09/11 07:49:47;;;;;;;17.20;6.73;;;;;;;20.50;51.02;100880.31;125911;1098;104198;-77
2023/09/11 07:52:19;;;;;;;14.33;5.90;;;;;;;20.58;50.82;100880.31;126148;1099;101881;-78
2023/09/11 07:54:50;;;;;;;16.77;6.30;;;;;;;20.64;49.54;100875.90;125585;1099;102026;-84
2023/09/11 07:57:22;;;;;;;13.77;6.17;;;;;;;20.73;50.04;100877.69;125394;1099;104245;-80
2023/09/11 07:59:56;;;;;;;15.93;6.30;;;;;;;20.80;50.02;100875.90;125659;1098;104166;-81
2023/09/11 08:02:36;;;;;;;21.00;6.70;;;;;;;20.80;48.98;100884.81;126448;1098;101893;-78
2023/09/11 08:05:18;;;;;;;22.40;6.67;;;;;;;20.87;48.84;100879.48;126589;1098;110862;-79
2023/09/11 08:08:03;;;;;;;17.40;6.00;;;;;;;20.99;49.04;100879.47;126790;1098;104089;-86
2023/09/11 08:10:48;;;;;;;19.80;6.10;;;;;;;21.12;48.44;100869.66;126986;1098;102166;-82
2023/09/11 08:13:36;;;;;;;16.67;5.73;;;;;;;21.29;48.63;100872.30;125927;1099;104236;-80
2023/09/11 08:16:17;;;;;;;22.25;6.20;;;;;;;21.38;48.18;100869.59;126491;1098;104214;-81
2023/09/11 08:18:50;;;;;;;16.48;5.60;;;;;;;21.42;47.30;100867.80;126461;1098;102028;-79
2023/09/11 08:21:33;;;;;;;19.03;5.50;;;;;;;21.44;47.16;100861.57;126401;1098;101974;-81
2023/09/11 08:24:05;;;;;;;17.63;5.17;;;;;;;21.54;46.60;100863.33;125470;1099;104334;-78
2023/09/11 08:26:38;;;;;;;16.53;5.60;;;;;;;21.63;45.91;100866.84;126392;1098;104166;-83
2023/09/11 08:29:15;;;;;;;12.82;4.33;;;;;;;21.79;46.38;100865.02;125319;1099;104179;-84
2023/09/11 08:31:46;;;;;;;13.40;4.30;;;;;;;21.89;45.71;100851.61;126395;1098;104179;-79
2023/09/11 08:34:25;;;;;;;11.40;4.37;;;;;;;22.00;45.90;100861.33;126318;1098;101790;-80
2023/09/11 08:37:00;;;;;;;8.77;3.93;;;;;;;22.08;45.23;100855.06;126462;1098;104253;-79
2023/09/11 08:39:41;;;;;;;12.77;3.70;;;;;;;22.11;44.11;100845.23;126430;1098;104372;-79
2023/09/11 08:42:26;;;;;;;;;;;;;;;22.31;44.07;100854.03;127023;1098;101521;-81
2023/09/11 08:45:02;;;;;;;11.43;3.37;;;;;;;22.43;43.00;100845.92;125307;1099;102006;-81
2023/09/11 08:47:37;;;;;;;9.20;3.60;;;;;;;22.51;41.95;100842.31;126472;1098;101684;-80
2023/09/11 08:50:24;;;;;;;9.90;3.93;;;;;;;22.61;41.92;100844.03;127175;1098;101945;-86
2023/09/11 08:52:59;;;;;;;11.45;3.50;;;;;;;22.71;42.17;100840.35;126753;1098;102176;-88
2023/09/11 08:55:33;;;;;;;9.47;3.10;;;;;;;22.78;41.87;100836.73;126758;1098;104085;-81
2023/09/11 08:58:15;;;;;;;6.37;3.10;;;;;;;22.94;42.01;100837.46;126623;1099;104221;-83
2023/09/11 09:00:47;;;;;;;8.17;3.60;;;;;;;23.05;41.54;100839.16;125558;1099;104198;-81
2023/09/11 09:03:21;;;;;;;10.08;3.52;;;;;;;23.13;41.04;100831.95;126413;1098;101976;-83
2023/09/11 09:06:16;;;;;;;9.23;3.30;;;;;;;23.14;40.69;100829.27;126695;1098;101637;-85
2023/09/11 09:09:08;;;;;;;9.13;3.50;;;;;;;23.25;40.28;100825.56;125975;1099;101856;-81
2023/09/11 09:11:47;;;;;;;9.30;3.23;;;;;;;23.31;39.69;100820.13;126022;1099;104159;-82
2023/09/11 09:14:20;;;;;;;8.67;2.90;;;;;;;23.51;39.72;100822.57;125971;1099;102114;-80
2023/09/11 09:16:56;;;;;;;8.97;3.07;;;;;;;23.60;39.22;100817.09;126045;1098;102070;-80
2023/09/11 09:19:31;;;;;;;7.17;2.90;;;;;;;23.61;38.36;100818.00;127100;1099;101662;-82
2023/09/11 09:22:21;;;;;;;3.90;2.70;;;;;;;23.75;38.03;100812.43;127075;1098;101705;-79
2023/09/11 09:25:15;;;;;;;8.90;3.00;;;;;;;23.95;37.79;100812.19;125837;1098;102203;-80
2023/09/11 09:27:54;;;;;;;6.63;2.60;;;;;;;24.10;37.53;100809.27;126367;1098;102733;-82
2023/09/11 09:30:28;;;;;;;6.20;2.57;;;;;;;24.10;36.28;100811.95;125872;1098;101973;-85
2023/09/11 09:33:20;;;;;;;5.07;2.70;;;;;;;24.08;36.35;100808.42;126118;1098;104326;-82
2023/09/11 09:35:55;;;;;;;8.23;2.97;;;;;;;24.17;35.31;100800.23;125525;1099;102414;-85
2023/09/11 09:38:27;;;;;;;7.13;3.00;;;;;;;24.26;35.74;100796.51;126063;1098;104163;-83
2023/09/11 09:41:08;;;;;;;11.80;3.00;;;;;;;24.25;35.52;100800.12;125792;1099;102104;-83
2023/09/11 09:43:51;;;;;;;9.77;3.33;;;;;;;24.41;35.67;100795.38;127425;1098;101884;-82
2023/09/11 09:46:26;;;;;;;4.60;2.87;;;;;;;24.36;34.31;100798.14;126459;1098;104169;-84
2023/09/11 09:49:00;;;;;;;5.63;2.90;;;;;;;24.30;33.58;100792.00;127103;1098;101693;-84
2023/09/11 09:51:45;;;;;;;4.20;2.58;;;;;;;24.26;32.95;100791.14;126277;1099;104354;-86
2023/09/11 09:54:21;;;;;;;5.47;2.67;;;;;;;24.34;33.54;100783.88;125472;1099;104179;-77
2023/09/11 09:56:57;;;;;;;6.65;3.22;;;;;;;24.26;32.87;100782.23;125237;1099;101857;-82
2023/09/11 09:59:29;;;;;;;4.90;2.50;;;;;;;24.21;32.67;100774.26;125536;1099;102122;-79
2023/09/11 10:02:01;;;;;;;5.03;2.80;;;;;;;24.24;33.14;100776.89;125791;1098;104195;-83
2023/09/11 10:04:33;;;;;;;7.47;2.73;;;;;;;24.27;32.94;100782.20;126397;1098;102026;-80
2023/09/11 10:07:06;;;;;;;6.10;2.63;;;;;;;24.36;32.97;100776.69;124935;1099;104149;-80
2023/09/11 10:09:42;;;;;;;5.00;2.65;;;;;;;24.49;31.91;100771.98;125525;1099;101991;-87
2023/09/11 10:12:17;;;;;;;6.80;2.63;;;;;;;24.68;31.69;100764.55;125568;1099;101925;-82
2023/09/11 10:14:51;;;;;;;5.73;2.87;;;;;;;24.69;31.55;100765.42;125558;1099;101801;-81
2023/09/11 10:17:32;;;;;;;4.70;2.90;;;;;;;24.63;32.00;100763.73;125404;1099;102064;-82
2023/09/11 10:20:20;;;;;;;2.70;2.23;;;;;;;24.63;31.91;100762.85;125499;1098;102121;-82
2023/09/11 10:23:14;;;;;;;7.10;3.00;;;;;;;24.61;31.76;100760.20;126278;1099;104579;-81
2023/09/11 10:25:47;;;;;;;;;;;;;;;24.60;30.34;100761.09;125917;1099;102022;-83
2023/09/11 10:28:45;;;;;;;7.53;2.30;;;;;;;24.73;31.26;100759.97;125150;1099;104322;-79
2023/09/11 10:31:30;;;;;;;5.97;2.43;;;;;;;24.78;31.03;100759.89;126724;1098;102107;-80
2023/09/11 10:34:34;;;;;;;4.63;2.70;;;;;;;24.85;31.10;100749.91;126694;1098;102025;-80
2023/09/11 10:37:12;;;;;;;4.77;2.40;;;;;;;24.80;30.41;100743.76;125941;1099;102748;-82
2023/09/11 10:39:52;;;;;;;5.30;2.55;;;;;;;24.79;30.05;100739.30;126337;1098;102021;-80
2023/09/11 10:42:26;;;;;;;6.37;2.80;;;;;;;24.81;29.59;100743.73;126600;1098;104271;-80
2023/09/11 10:45:29;;;;;;;8.40;2.70;;;;;;;24.90;30.16;100729.22;127273;1098;101676;-83
2023/09/11 10:48:03;;;;;;;5.70;2.37;;;;;;;24.96;30.36;100737.16;126763;1098;101786;-81
2023/09/11 10:50:46;;;;;;;3.10;2.23;;;;;;;24.93;29.50;100735.44;126408;1098;101929;-79
2023/09/11 10:53:33;;;;;;;8.00;2.83;;;;;;;25.03;29.93;100741.50;125422;1099;104319;-77
2023/09/11 10:56:18;;;;;;;6.47;2.63;;;;;;;24.99;29.84;100739.77;125318;1099;104227;-80
2023/09/11 10:58:56;;;;;;;7.97;2.50;;;;;;;24.89;29.39;100738.21;126467;1098;102276;-82
2023/09/11 11:01:35;;;;;;;7.03;2.73;;;;;;;24.91;29.10;100731.87;126717;1099;101899;-82
2023/09/11 11:04:17;;;;;;;6.63;2.70;;;;;;;25.00;28.78;100729.95;126291;1099;104178;-82
2023/09/11 11:06:53;;;;;;;5.60;2.70;;;;;;;25.14;29.08;100719.80;126334;1098;104273;-79
2023/09/11 11:09:31;;;;;;;6.03;2.47;;;;;;;25.17;28.65;100716.17;125426;1099;104096;-81
2023/09/11 11:12:13;;;;;;;5.50;2.70;;;;;;;25.12;27.99;100710.91;125812;1099;102062;-83
2023/09/11 11:15:42;;;;;;;8.23;2.57;;;;;;;25.00;27.31;100713.84;126350;1099;104235;-82
2023/09/11 11:18:16;;;;;;;9.00;3.40;;;;;;;24.96;27.64;100713.00;126171;1099;104235;-84
2023/09/11 11:21:14;;;;;;;5.87;2.83;;;;;;;24.86;27.91;100706.06;126869;1098;102205;-84
2023/09/11 11:24:00;;;;;;;6.17;3.07;;;;;;;24.81;27.66;100697.20;125972;1099;104195;-84
2023/09/11 11:26:40;;;;;;;4.97;2.60;;;;;;;24.76;27.73;100708.03;125223;1099;102049;-80
2023/09/11 11:29:12;;;;;;;5.07;2.50;;;;;;;24.80;27.79;100699.02;126369;1098;101888;-81
2023/09/11 11:31:47;;;;;;;7.55;2.50;;;;;;;24.87;27.63;100697.98;125561;1099;104249;-81
2023/09/11 11:34:31;;;;;;;4.40;2.53;;;;;;;24.92;27.31;100695.20;124896;1099;102192;-83
2023/09/11 11:37:08;;;;;;;6.90;2.67;;;;;;;24.96;27.84;100691.52;126703;1099;101857;-79
2023/09/11 11:39:44;;;;;;;4.00;2.40;;;;;;;24.90;27.77;100680.91;125679;1099;111192;-84
2023/09/11 11:42:25;;;;;;;6.08;2.77;;;;;;;24.84;27.76;100687.31;125712;1099;104230;-82
2023/09/11 11:45:11;;;;;;;6.67;2.40;;;;;;;24.87;27.54;100675.61;126493;1098;104194;-80
2023/09/11 11:47:45;;;;;;;5.80;2.40;;;;;;;24.90;27.63;100691.64;125825;1099;102779;-86
2023/09/11 11:50:32;;;;;;;;;;;;;;;;;;;;;